Time;durP1;ratioP1;P1;durP2;ratioP2;P2;SDS_P1;SDS_P2;PMS_P1;PMS_P2;Temp;Humidity;BMP_temperature;BMP_pressure;BME280_temperature;BME280_humidity;BME280_pressure;Samples;Min_cycle;Max_cycle;Signal;HPM_P1;HPM_P2
2022/06/06 00:00:48;;;;;;;7.57;5.78;;;15.80;32.30;;;;;;5010358;28;34189;-79
2022/06/06 00:03:16;;;;;;;9.98;5.68;;;15.80;32.40;;;;;;5024378;28;34079;-79
2022/06/06 00:05:47;;;;;;;11.25;5.70;;;15.80;32.20;;;;;;5021849;28;34666;-79
2022/06/06 00:08:15;;;;;;;9.23;5.55;;;15.80;32.20;;;;;;4991693;28;34084;-79
2022/06/06 00:10:44;;;;;;;11.27;5.53;;;15.90;32.30;;;;;;4991920;28;34245;-79
2022/06/06 00:13:12;;;;;;;13.07;5.97;;;15.90;32.40;;;;;;4992018;28;34075;-79
2022/06/06 00:15:38;;;;;;;8.18;5.13;;;15.90;32.40;;;;;;4990358;28;36515;-79
2022/06/06 00:18:04;;;;;;;8.90;5.38;;;16.00;32.40;;;;;;4991593;28;34189;-80
2022/06/06 00:20:31;;;;;;;7.53;5.32;;;16.00;32.40;;;;;;4991903;28;34447;-79
2022/06/06 00:22:58;;;;;;;10.00;5.68;;;16.00;32.40;;;;;;4991003;28;34566;-79
2022/06/06 00:25:25;;;;;;;13.57;6.13;;;16.00;32.40;;;;;;4990617;28;35537;-79
2022/06/06 00:27:51;;;;;;;10.07;6.57;;;16.10;32.60;;;;;;4991199;28;34154;-79
2022/06/06 00:30:17;;;;;;;8.73;5.65;;;16.10;32.60;;;;;;4991296;28;34293;-79
2022/06/06 00:35:24;;;;;;;10.35;5.80;;;16.20;32.60;;;;;;5007050;28;34330;-79
2022/06/06 00:37:50;;;;;;;6.95;5.00;;;16.20;32.60;;;;;;5026479;28;34027;-79
2022/06/06 00:40:20;;;;;;;9.68;6.10;;;16.20;32.60;;;;;;5002940;28;34414;-79
2022/06/06 00:42:46;;;;;;;7.82;5.90;;;16.20;32.60;;;;;;5010284;28;34165;-79
2022/06/06 00:45:21;;;;;;;7.93;5.35;;;16.20;32.70;;;;;;4994224;28;35587;-79
2022/06/06 00:48:02;;;;;;;12.75;5.75;;;16.30;33.10;;;;;;5007811;28;34074;-79
2022/06/06 00:50:49;;;;;;;10.55;5.72;;;16.30;33.60;;;;;;5026517;28;34131;-80
2022/06/06 00:53:20;;;;;;;8.55;5.93;;;16.30;33.10;;;;;;5028715;28;34222;-79
2022/06/06 00:55:51;;;;;;;13.10;6.97;;;16.30;32.90;;;;;;5027453;28;35456;-79
2022/06/06 00:58:20;;;;;;;8.23;6.13;;;16.30;32.90;;;;;;5010387;28;34240;-79
2022/06/06 01:00:49;;;;;;;10.07;6.82;;;16.30;32.90;;;;;;5010337;28;34280;-79
2022/06/06 01:03:18;;;;;;;11.93;6.18;;;16.30;32.90;;;;;;5010833;28;34503;-79
2022/06/06 01:05:47;;;;;;;8.75;6.20;;;16.40;32.90;;;;;;5009458;28;35539;-79
2022/06/06 01:08:15;;;;;;;7.78;5.72;;;16.30;32.90;;;;;;5008914;28;34299;-79
2022/06/06 01:10:42;;;;;;;12.00;6.30;;;16.30;32.80;;;;;;5010054;28;34031;-79
2022/06/06 01:13:10;;;;;;;10.23;5.75;;;16.30;32.90;;;;;;5026402;28;34386;-79
2022/06/06 01:16:01;;;;;;;11.90;5.82;;;16.30;32.90;;;;;;4991228;28;35826;-79
2022/06/06 01:18:48;;;;;;;11.43;5.97;;;16.30;33.60;;;;;;5009311;28;34289;-79
2022/06/06 01:21:44;;;;;;;9.52;5.43;;;16.20;33.40;;;;;;5009840;28;34304;-79
2022/06/06 01:24:35;;;;;;;16.00;5.35;;;16.20;33.50;;;;;;4997147;28;34468;-79
2022/06/06 01:27:27;;;;;;;9.38;5.88;;;16.20;33.20;;;;;;5008639;28;36508;-78
2022/06/06 01:30:01;;;;;;;13.68;6.15;;;16.20;33.00;;;;;;4981819;28;34159;-79
2022/06/06 01:32:28;;;;;;;8.40;5.60;;;16.10;32.90;;;;;;5027084;28;34297;-79
2022/06/06 01:34:55;;;;;;;8.02;6.00;;;16.10;32.80;;;;;;5010007;28;34311;-79
2022/06/06 01:37:31;;;;;;;9.60;5.93;;;16.10;32.80;;;;;;5009539;28;35690;-79
2022/06/06 01:40:00;;;;;;;10.45;5.97;;;16.10;32.90;;;;;;4994367;28;34211;-79
2022/06/06 01:42:36;;;;;;;9.90;5.20;;;16.00;32.80;;;;;;5009631;28;34216;-79
2022/06/06 01:45:17;;;;;;;10.98;5.40;;;16.10;33.10;;;;;;4973635;28;34091;-79
2022/06/06 01:47:49;;;;;;;13.20;6.13;;;16.00;33.40;;;;;;4988817;28;36248;-79
2022/06/06 01:50:16;;;;;;;8.85;5.95;;;16.00;32.90;;;;;;5006664;28;34080;-79
2022/06/06 01:53:05;;;;;;;8.35;5.82;;;16.00;32.80;;;;;;4972650;28;34136;-78
2022/06/06 01:55:33;;;;;;;8.63;5.95;;;15.90;33.70;;;;;;4975513;28;34313;-78
2022/06/06 01:58:02;;;;;;;10.10;5.90;;;15.90;33.00;;;;;;5019518;28;34984;-79
2022/06/06 02:00:31;;;;;;;8.73;6.07;;;15.90;32.90;;;;;;5008746;28;34099;-79
2022/06/06 02:02:58;;;;;;;8.00;5.25;;;15.80;32.90;;;;;;4989075;28;34207;-79
2022/06/06 02:05:25;;;;;;;9.63;5.85;;;15.80;32.90;;;;;;4989325;28;34450;-79
2022/06/06 02:07:51;;;;;;;8.55;5.93;;;15.90;33.00;;;;;;4988725;28;35940;-79
2022/06/06 02:10:20;;;;;;;11.13;6.05;;;15.80;32.90;;;;;;4988969;28;34330;-78
2022/06/06 02:12:46;;;;;;;8.88;5.88;;;15.90;33.10;;;;;;4972095;28;34059;-78
2022/06/06 02:15:15;;;;;;;10.07;6.55;;;15.80;33.00;;;;;;5005364;28;34315;-79
2022/06/06 02:17:41;;;;;;;11.18;6.78;;;15.90;33.10;;;;;;4989378;28;36169;-78
2022/06/06 02:20:09;;;;;;;12.50;6.60;;;15.90;33.10;;;;;;4990716;28;34052;-78
2022/06/06 02:22:35;;;;;;;8.85;6.30;;;15.90;33.90;;;;;;4976188;28;34142;-78
2022/06/06 02:25:02;;;;;;;12.57;6.82;;;15.90;33.30;;;;;;4991809;28;34137;-79
2022/06/06 02:27:28;;;;;;;12.35;6.90;;;15.90;33.30;;;;;;5008492;28;35603;-79
2022/06/06 02:29:54;;;;;;;14.57;6.95;;;15.90;33.30;;;;;;5008174;28;34188;-78
2022/06/06 02:32:21;;;;;;;12.55;6.15;;;15.90;33.20;;;;;;5026037;28;34235;-78
2022/06/06 02:34:47;;;;;;;9.30;6.20;;;15.90;33.20;;;;;;5025902;28;34145;-79
2022/06/06 02:37:13;;;;;;;9.98;6.88;;;16.00;33.20;;;;;;5007822;28;35198;-79
2022/06/06 02:39:39;;;;;;;12.02;7.47;;;16.00;33.20;;;;;;5025165;28;33996;-79
2022/06/06 02:42:05;;;;;;;11.50;6.60;;;16.00;33.30;;;;;;5007941;28;34279;-78
2022/06/06 02:44:31;;;;;;;11.60;7.80;;;16.10;33.40;;;;;;5009051;28;34102;-79
2022/06/06 02:46:57;;;;;;;11.20;6.85;;;16.10;33.40;;;;;;5008131;28;35903;-79
2022/06/06 02:49:23;;;;;;;11.25;7.63;;;16.10;33.40;;;;;;5007195;28;34159;-79
2022/06/06 02:51:49;;;;;;;16.25;7.15;;;16.10;33.60;;;;;;5025448;28;34151;-78
2022/06/06 02:54:15;;;;;;;14.00;8.05;;;16.10;33.50;;;;;;5007410;28;34255;-79
2022/06/06 02:56:41;;;;;;;16.27;8.57;;;16.20;33.60;;;;;;4990648;28;35656;-78
2022/06/06 02:59:08;;;;;;;12.88;7.93;;;16.20;33.60;;;;;;5006975;28;34023;-79
2022/06/06 03:01:33;;;;;;;15.15;7.93;;;16.20;33.70;;;;;;5034488;28;34357;-79
2022/06/06 03:03:59;;;;;;;13.35;7.10;;;16.20;33.60;;;;;;5031145;28;34007;-79
2022/06/06 03:06:43;;;;;;;10.57;7.18;;;16.20;33.60;;;;;;5040326;28;34932;-79
2022/06/06 03:09:34;;;;;;;14.73;7.70;;;16.20;34.00;;;;;;5011040;28;34146;-78
2022/06/06 03:12:27;;;;;;;16.30;7.57;;;16.20;33.90;;;;;;4996797;28;34211;-78
2022/06/06 03:15:09;;;;;;;15.00;8.35;;;16.20;34.80;;;;;;4998786;28;34147;-79
2022/06/06 03:20:48;;;;;;;12.80;8.13;;;16.20;34.20;;;;;;5028207;28;34152;-79
2022/06/06 03:23:44;;;;;;;14.10;7.70;;;16.20;33.60;;;;;;5011378;28;34202;-79
2022/06/06 03:26:33;;;;;;;12.85;7.50;;;16.20;34.60;;;;;;5012468;28;34075;-79
2022/06/06 03:29:16;;;;;;;12.98;7.05;;;16.20;34.40;;;;;;5011878;28;36114;-79
2022/06/06 03:32:03;;;;;;;13.45;6.93;;;16.30;34.00;;;;;;5011395;28;34347;-79
2022/06/06 03:34:53;;;;;;;12.27;7.32;;;16.20;34.20;;;;;;5029312;28;34245;-79
2022/06/06 03:37:37;;;;;;;13.20;6.95;;;16.20;33.90;;;;;;5010761;28;34063;-79
2022/06/06 03:40:18;;;;;;;13.80;7.35;;;16.20;34.30;;;;;;4995658;28;36438;-80
2022/06/06 03:43:01;;;;;;;10.98;6.78;;;16.20;34.00;;;;;;4978491;28;34124;-79
2022/06/06 03:45:53;;;;;;;11.95;7.22;;;16.10;34.30;;;;;;4995237;28;34660;-79
2022/06/06 03:48:41;;;;;;;10.00;6.00;;;16.20;34.20;;;;;;5011848;28;33992;-79
2022/06/06 03:51:28;;;;;;;11.13;6.95;;;16.20;33.70;;;;;;4980092;28;35680;-80
2022/06/06 03:54:15;;;;;;;10.60;6.30;;;16.10;33.70;;;;;;5011271;28;34425;-79
2022/06/06 03:56:58;;;;;;;10.88;6.75;;;16.10;33.60;;;;;;5010958;28;34198;-79
2022/06/06 03:59:28;;;;;;;11.38;7.15;;;16.10;33.80;;;;;;5013432;28;34340;-79
2022/06/06 04:01:58;;;;;;;12.30;7.05;;;16.10;33.50;;;;;;5010307;28;35012;-79
2022/06/06 04:04:24;;;;;;;11.95;6.57;;;16.10;33.50;;;;;;5010689;28;34126;-79
2022/06/06 04:06:55;;;;;;;11.52;7.03;;;16.10;33.50;;;;;;5010380;28;34153;-79
2022/06/06 04:09:21;;;;;;;10.68;6.72;;;16.10;33.50;;;;;;4993018;28;34186;-79
2022/06/06 04:12:06;;;;;;;9.65;6.03;;;16.10;33.40;;;;;;5009793;28;35977;-79
2022/06/06 04:14:50;;;;;;;9.23;6.07;;;16.20;33.70;;;;;;5008132;28;34178;-79
2022/06/06 04:17:39;;;;;;;12.32;6.80;;;16.20;34.00;;;;;;5009401;28;34116;-79
2022/06/06 04:20:29;;;;;;;10.30;6.38;;;16.20;33.70;;;;;;5010072;28;34118;-79
2022/06/06 04:23:22;;;;;;;11.43;5.82;;;16.20;34.00;;;;;;4996277;28;36133;-79
2022/06/06 04:26:11;;;;;;;9.20;6.32;;;16.20;34.00;;;;;;4993315;28;34330;-80
2022/06/06 04:29:04;;;;;;;11.95;6.03;;;16.20;34.00;;;;;;5027823;28;34050;-79
2022/06/06 04:31:49;;;;;;;11.38;6.57;;;16.20;33.80;;;;;;5013174;28;34205;-79
2022/06/06 04:34:37;;;;;;;8.05;6.13;;;16.20;33.50;;;;;;4993469;28;36740;-78
2022/06/06 04:37:16;;;;;;;9.05;6.57;;;16.20;33.60;;;;;;5010670;28;34173;-78
2022/06/06 04:40:08;;;;;;;10.43;6.18;;;16.30;33.70;;;;;;5010114;28;34485;-79
2022/06/06 04:42:44;;;;;;;13.73;6.50;;;16.30;34.10;;;;;;4997769;28;34297;-79
2022/06/06 04:45:34;;;;;;;10.10;5.50;;;16.30;33.40;;;;;;5009841;28;35636;-79
2022/06/06 04:48:02;;;;;;;11.02;6.50;;;16.40;33.50;;;;;;5010242;28;34086;-79
2022/06/06 04:50:29;;;;;;;12.45;6.68;;;16.40;33.20;;;;;;4993667;28;34247;-79
2022/06/06 04:53:00;;;;;;;11.38;6.35;;;16.50;33.10;;;;;;5010455;28;34265;-78
2022/06/06 04:55:29;;;;;;;11.75;7.13;;;16.60;33.00;;;;;;5009169;28;36685;-79
2022/06/06 04:57:58;;;;;;;10.98;6.72;;;16.70;32.90;;;;;;5010217;28;34251;-79
2022/06/06 05:00:25;;;;;;;13.98;6.90;;;16.70;32.90;;;;;;4993041;28;34205;-79
2022/06/06 05:02:51;;;;;;;11.13;6.45;;;16.80;32.70;;;;;;4979574;28;33996;-79
2022/06/06 05:05:17;;;;;;;10.23;5.78;;;16.80;32.70;;;;;;5006422;28;35530;-79
2022/06/06 05:08:07;;;;;;;9.55;5.82;;;16.80;32.60;;;;;;5009059;28;34142;-78
2022/06/06 05:10:56;;;;;;;11.82;6.22;;;16.70;32.80;;;;;;4980228;28;34008;-79
2022/06/06 05:13:51;;;;;;;10.20;5.90;;;16.70;33.20;;;;;;4990338;28;34468;-79
2022/06/06 05:16:39;;;;;;;11.30;5.88;;;16.60;33.00;;;;;;4990274;28;36436;-79
2022/06/06 05:19:32;;;;;;;9.90;5.85;;;16.60;33.20;;;;;;4989939;28;34198;-78
2022/06/06 05:22:16;;;;;;;11.55;6.18;;;16.60;33.10;;;;;;4989808;28;34229;-79
2022/06/06 05:25:17;;;;;;;8.35;5.97;;;16.60;32.90;;;;;;4991007;28;34170;-79
2022/06/06 05:28:18;;;;;;;12.10;6.32;;;16.60;33.40;;;;;;4997731;28;36581;-78
2022/06/06 05:31:14;;;;;;;9.82;6.28;;;16.60;33.20;;;;;;5009976;28;34388;-79
2022/06/06 05:33:51;;;;;;;10.57;6.35;;;17.40;33.00;;;;;;4999392;28;34161;-80
2022/06/06 05:36:47;;;;;;;9.73;5.90;;;18.40;30.40;;;;;;5027492;28;34353;-79
2022/06/06 05:39:44;;;;;;;8.93;5.40;;;19.60;28.60;;;;;;5011315;28;36123;-80
2022/06/06 05:42:28;;;;;;;7.93;5.28;;;20.60;25.00;;;;;;5017465;28;34050;-81
2022/06/06 05:45:13;;;;;;;8.95;5.30;;;21.10;22.00;;;;;;5000517;28;34205;-80
2022/06/06 05:48:17;;;;;;;7.45;4.75;;;21.20;21.80;;;;;;5007791;28;33891;-79
2022/06/06 05:51:14;;;;;;;8.93;5.03;;;21.50;20.50;;;;;;4977889;28;35916;-79
2022/06/06 05:53:56;;;;;;;8.32;4.80;;;22.10;21.50;;;;;;5021102;28;34264;-79
2022/06/06 05:56:45;;;;;;;6.60;4.30;;;22.20;19.20;;;;;;4987986;28;34328;-79
2022/06/06 05:59:36;;;;;;;5.72;4.00;;;22.10;19.50;;;;;;5004271;28;34401;-81
2022/06/06 06:02:30;;;;;;;4.82;3.78;;;21.80;18.70;;;;;;4983937;28;35667;-80
2022/06/06 06:05:19;;;;;;;5.18;3.88;;;21.80;19.50;;;;;;5022159;28;34251;-77
2022/06/06 06:08:16;;;;;;;7.18;3.85;;;21.90;21.10;;;;;;5004437;28;34144;-79
2022/06/06 06:11:12;;;;;;;6.15;3.85;;;22.20;19.30;;;;;;5000644;28;34289;-80
2022/06/06 06:14:11;;;;;;;5.75;3.33;;;22.50;18.90;;;;;;5005877;28;35825;-80
2022/06/06 06:16:43;;;;;;;4.57;3.33;;;23.00;16.40;;;;;;5007291;28;35207;-78
2022/06/06 06:19:14;;;;;;;4.75;3.17;;;22.80;19.10;;;;;;5017207;28;34145;-80
2022/06/06 06:21:45;;;;;;;5.93;3.30;;;22.70;19.80;;;;;;5008839;28;34079;-78
2022/06/06 06:24:17;;;;;;;4.97;3.45;;;22.30;19.40;;;;;;5009601;28;36764;-79
2022/06/06 06:26:44;;;;;;;6.10;3.58;;;21.90;20.20;;;;;;5006908;28;34200;-80
2022/06/06 06:29:10;;;;;;;4.00;3.28;;;21.50;21.50;;;;;;5010152;28;34358;-81
2022/06/06 06:32:08;;;;;;;4.65;3.47;;;21.20;22.00;;;;;;4993174;28;34601;-80
2022/06/06 06:35:09;;;;;;;5.07;3.53;;;21.00;19.50;;;;;;4983457;28;35779;-81
2022/06/06 06:37:56;;;;;;;5.10;3.45;;;20.90;19.90;;;;;;4990847;28;34162;-81
2022/06/06 06:40:43;;;;;;;7.00;3.08;;;20.80;20.90;;;;;;4989622;28;34195;-80
2022/06/06 06:46:20;;;;;;;4.13;3.15;;;20.60;22.30;;;;;;5026127;28;34675;-77
2022/06/06 06:48:51;;;;;;;7.72;3.50;;;20.70;21.40;;;;;;4985316;28;34425;-76
2022/06/06 06:51:25;;;;;;;5.32;3.65;;;20.90;21.70;;;;;;5000052;28;34294;-80
2022/06/06 06:54:14;;;;;;;5.60;3.13;;;21.20;21.10;;;;;;5002644;28;34208;-82
2022/06/06 06:57:04;;;;;;;4.72;3.05;;;21.20;18.40;;;;;;5023289;28;35334;-78
2022/06/06 06:59:53;;;;;;;5.65;3.45;;;21.10;19.50;;;;;;5005593;28;34208;-79
2022/06/06 07:08:39;;;;;;;5.35;2.83;;;21.30;17.10;;;;;;5006991;28;34104;-77
2022/06/06 07:11:32;;;;;;;3.58;2.95;;;21.40;18.70;;;;;;5005168;28;34386;-76
2022/06/06 07:14:06;;;;;;;4.72;2.33;;;21.20;19.80;;;;;;5013873;28;35126;-76
2022/06/06 07:16:38;;;;;;;2.60;2.40;;;21.50;19.90;;;;;;5002656;28;34256;-78
2022/06/06 07:19:10;;;;;;;5.50;3.10;;;22.10;20.00;;;;;;5003367;28;35509;-75
2022/06/06 07:21:39;;;;;;;4.95;2.55;;;22.20;17.80;;;;;;5007726;28;35265;-77
2022/06/06 07:24:09;;;;;;;4.43;2.45;;;22.10;19.30;;;;;;5006089;28;34412;-78
2022/06/06 07:26:39;;;;;;;3.55;2.40;;;22.10;19.30;;;;;;5003607;28;35189;-82
2022/06/06 07:29:07;;;;;;;2.55;2.20;;;22.20;19.00;;;;;;5006492;28;34374;-79
2022/06/06 07:32:03;;;;;;;3.70;2.10;;;22.10;19.20;;;;;;5002470;28;34880;-75
2022/06/06 07:35:04;;;;;;;4.00;2.47;;;22.20;16.00;;;;;;4981903;28;34461;-79
2022/06/06 07:37:48;;;;;;;4.55;2.90;;;22.50;17.50;;;;;;5009511;28;34316;-79
2022/06/06 07:40:34;;;;;;;3.78;2.45;;;22.60;18.20;;;;;;5014715;28;35279;-79
2022/06/06 07:43:22;;;;;;;2.67;1.80;;;23.10;17.60;;;;;;4998315;28;34417;-78
2022/06/06 07:45:52;;;;;;;3.10;2.22;;;23.30;14.00;;;;;;5009061;28;34254;-77
2022/06/06 07:48:54;;;;;;;3.00;2.30;;;23.20;16.70;;;;;;4980308;28;34400;-80
2022/06/06 07:51:39;;;;;;;3.13;2.20;;;23.60;15.90;;;;;;4993278;28;36637;-78
2022/06/06 07:54:27;;;;;;;3.20;1.95;;;24.10;16.80;;;;;;5018784;28;34419;-79
2022/06/06 07:57:06;;;;;;;4.90;2.35;;;24.30;14.90;;;;;;4986371;28;34173;-78
2022/06/06 08:00:07;;;;;;;2.08;1.73;;;24.60;13.80;;;;;;4990560;28;34501;-80
2022/06/06 08:02:48;;;;;;;5.13;1.58;;;24.50;10.60;;;;;;5004551;28;34423;-79
2022/06/06 08:05:45;;;;;;;6.57;1.50;;;24.20;11.40;;;;;;5004084;28;34223;-80
2022/06/06 08:08:44;;;;;;;2.92;1.80;;;24.00;10.50;;;;;;4999293;28;34299;-79
2022/06/06 08:11:24;;;;;;;1.88;1.27;;;23.60;10.50;;;;;;4996913;28;33845;-81
2022/06/06 08:14:08;;;;;;;1.55;1.40;;;23.30;13.20;;;;;;5023450;28;34376;-79
2022/06/06 08:16:43;;;;;;;2.67;1.77;;;22.90;12.00;;;;;;5006053;28;34413;-75
2022/06/06 08:19:40;;;;;;;3.75;1.98;;;22.70;15.00;;;;;;5022982;28;34320;-78
2022/06/06 08:22:08;;;;;;;2.10;1.70;;;22.80;13.60;;;;;;5002606;28;34341;-78
2022/06/06 08:24:40;;;;;;;2.30;1.88;;;22.70;16.30;;;;;;5003090;28;34461;-78
2022/06/06 08:27:11;;;;;;;2.47;2.03;;;22.70;15.40;;;;;;5000903;28;34564;-79
2022/06/06 08:29:40;;;;;;;4.50;1.38;;;22.70;15.70;;;;;;4993185;28;34719;-76
2022/06/06 08:32:07;;;;;;;2.42;1.58;;;22.70;16.20;;;;;;5021584;28;34280;-79
2022/06/06 08:34:34;;;;;;;1.92;1.60;;;22.70;16.20;;;;;;4972278;28;35831;-79
2022/06/06 08:37:26;;;;;;;2.00;1.60;;;22.70;16.10;;;;;;5002563;28;34265;-77
2022/06/06 08:40:17;;;;;;;4.47;2.10;;;22.80;14.20;;;;;;4985898;28;34542;-78
2022/06/06 08:43:00;;;;;;;5.00;1.80;;;22.90;12.60;;;;;;4998458;28;34366;-76
2022/06/06 08:45:51;;;;;;;1.80;1.40;;;22.90;12.80;;;;;;4983031;28;35184;-80
2022/06/06 08:48:45;;;;;;;1.77;1.30;;;22.90;12.40;;;;;;5000365;28;34348;-76
2022/06/06 08:51:49;;;;;;;2.10;1.58;;;22.90;12.90;;;;;;5004011;28;34313;-80
2022/06/06 08:54:45;;;;;;;2.63;1.80;;;22.70;12.60;;;;;;4991031;28;34158;-78
2022/06/06 08:57:40;;;;;;;1.83;1.50;;;22.40;13.20;;;;;;4997378;28;35841;-75
2022/06/06 09:00:27;;;;;;;1.75;1.50;;;22.00;13.80;;;;;;4993289;28;34334;-82
2022/06/06 09:03:25;;;;;;;4.53;1.77;;;21.80;14.50;;;;;;5009247;28;34183;-81
2022/06/06 09:06:27;;;;;;;2.65;1.52;;;21.70;14.20;;;;;;5009154;28;34590;-82
2022/06/06 09:09:28;;;;;;;3.83;1.63;;;21.60;15.20;;;;;;5001107;28;36095;-80
2022/06/06 09:12:32;;;;;;;2.53;1.42;;;21.30;15.70;;;;;;4985461;28;34504;-80
2022/06/06 09:15:30;;;;;;;5.13;1.52;;;20.80;16.20;;;;;;4979571;28;35363;-76
2022/06/06 09:18:27;;;;;;;1.70;1.60;;;20.50;18.30;;;;;;5001167;28;34207;-78
2022/06/06 09:21:27;;;;;;;3.45;1.85;;;20.10;19.50;;;;;;5016079;28;35603;-79
2022/06/06 09:24:24;;;;;;;1.52;1.30;;;19.80;19.00;;;;;;5017907;28;34407;-77
2022/06/06 09:27:20;;;;;;;4.55;1.65;;;19.60;19.70;;;;;;5000246;28;34314;-80
2022/06/06 09:29:59;;;;;;;4.93;1.65;;;19.30;19.20;;;;;;4991437;28;34049;-78
2022/06/06 09:32:57;;;;;;;4.38;1.88;;;19.20;20.30;;;;;;5005343;28;35776;-79
2022/06/06 09:35:38;;;;;;;1.77;1.52;;;19.20;22.80;;;;;;4993347;28;35307;-77
2022/06/06 09:38:23;;;;;;;1.60;1.50;;;19.30;22.40;;;;;;4997489;28;34237;-78
2022/06/06 09:41:21;;;;;;;2.45;1.88;;;19.40;21.90;;;;;;5003191;28;34058;-80
2022/06/06 09:43:57;;;;;;;2.10;1.67;;;19.50;22.50;;;;;;4996455;28;36077;-77
2022/06/06 09:46:50;;;;;;;2.58;1.90;;;19.40;22.10;;;;;;5007638;28;35037;-79
2022/06/06 09:49:51;;;;;;;2.70;2.08;;;19.50;22.90;;;;;;4996920;28;34095;-78
2022/06/06 09:52:47;;;;;;;2.05;1.88;;;19.60;22.70;;;;;;4988703;28;34374;-79
2022/06/06 09:59:05;;;;;;;2.42;2.13;;;19.80;23.00;;;;;;5009457;28;34165;-78
2022/06/06 10:01:57;;;;;;;2.60;1.67;;;20.00;22.80;;;;;;5006968;28;34440;-78
2022/06/06 10:04:56;;;;;;;3.42;1.98;;;20.20;22.80;;;;;;5003721;28;34173;-76
2022/06/06 10:07:59;;;;;;;2.17;1.75;;;20.30;21.30;;;;;;4994417;28;35867;-79
2022/06/06 10:10:53;;;;;;;2.00;1.80;;;20.20;21.10;;;;;;5002103;28;34442;-80
2022/06/06 10:13:34;;;;;;;2.53;1.73;;;20.00;23.80;;;;;;4997623;28;34232;-76
2022/06/06 10:16:29;;;;;;;1.65;1.55;;;19.90;20.70;;;;;;4979180;28;34081;-79
2022/06/06 10:19:19;;;;;;;1.40;1.30;;;19.80;22.00;;;;;;5003238;28;36646;-78
2022/06/06 10:22:17;;;;;;;1.60;1.50;;;19.70;21.10;;;;;;5007986;28;34220;-79
2022/06/06 10:25:12;;;;;;;1.95;1.52;;;19.50;20.50;;;;;;5006647;28;34300;-79
2022/06/06 10:28:08;;;;;;;1.80;1.70;;;19.50;21.80;;;;;;5009875;28;34450;-79
2022/06/06 10:30:50;;;;;;;2.85;1.58;;;19.50;22.50;;;;;;5009621;28;35631;-79
2022/06/06 10:33:45;;;;;;;2.13;1.52;;;19.60;22.10;;;;;;5003748;28;34340;-76
2022/06/06 10:36:49;;;;;;;1.50;1.40;;;19.60;21.00;;;;;;4988845;28;34293;-76
2022/06/06 10:39:42;;;;;;;3.45;1.52;;;19.40;22.60;;;;;;4997758;28;34143;-77
2022/06/06 10:42:36;;;;;;;1.33;1.23;;;19.30;22.10;;;;;;4991148;28;35545;-76
2022/06/06 10:45:30;;;;;;;1.90;1.30;;;19.20;22.00;;;;;;5002130;28;34231;-77
2022/06/06 10:51:45;;;;;;;2.10;1.25;;;19.10;22.00;;;;;;5027996;28;34148;-79
2022/06/06 10:54:32;;;;;;;1.30;0.98;;;19.10;21.10;;;;;;5010140;28;36404;-81
2022/06/06 10:57:30;;;;;;;1.98;1.23;;;19.10;20.40;;;;;;5011350;28;34075;-81
2022/06/06 11:00:17;;;;;;;1.88;1.33;;;19.20;20.60;;;;;;4995121;28;34215;-81
2022/06/06 11:03:13;;;;;;;1.27;1.02;;;19.20;22.70;;;;;;4995594;28;34247;-81
2022/06/06 11:06:10;;;;;;;1.30;1.20;;;19.30;23.10;;;;;;5010223;28;36449;-82
2022/06/06 11:08:57;;;;;;;1.23;1.13;;;19.40;20.90;;;;;;5012222;28;34225;-77
2022/06/06 11:11:38;;;;;;;2.42;1.20;;;19.60;22.10;;;;;;5009044;28;34182;-75
2022/06/06 11:14:22;;;;;;;1.85;1.30;;;19.90;20.50;;;;;;5007303;28;34185;-79
2022/06/06 11:17:18;;;;;;;1.67;1.15;;;20.30;21.70;;;;;;5020549;28;35302;-79
2022/06/06 11:20:11;;;;;;;1.30;1.20;;;20.80;19.00;;;;;;5007184;28;34211;-76
2022/06/06 11:22:42;;;;;;;1.05;0.95;;;21.50;21.20;;;;;;4981144;28;34481;-77
2022/06/06 11:25:18;;;;;;;1.27;1.17;;;21.90;25.10;;;;;;4995883;28;34466;-78
2022/06/06 11:28:03;;;;;;;1.30;1.13;;;22.30;16.70;;;;;;4992933;28;35873;-77
2022/06/06 11:31:00;;;;;;;1.60;1.10;;;22.40;15.80;;;;;;5011568;28;34368;-77
2022/06/06 11:34:03;;;;;;;1.88;1.40;;;22.30;16.00;;;;;;5002913;28;34325;-79
2022/06/06 11:36:59;;;;;;;1.40;1.30;;;22.30;15.50;;;;;;5016715;28;34274;-79
2022/06/06 11:40:00;;;;;;;1.67;1.30;;;22.30;16.20;;;;;;5025925;28;34241;-81
2022/06/06 11:42:59;;;;;;;1.27;1.17;;;22.40;17.20;;;;;;4996841;28;34405;-79
2022/06/06 11:45:56;;;;;;;0.90;0.90;;;22.60;16.30;;;;;;4996743;28;34163;-77
2022/06/06 11:48:52;;;;;;;1.27;1.17;;;23.00;16.20;;;;;;5012234;28;34061;-79
2022/06/06 11:51:43;;;;;;;1.25;1.15;;;23.30;13.40;;;;;;5009512;28;35550;-78
2022/06/06 11:54:37;;;;;;;1.70;1.20;;;23.40;11.00;;;;;;4995764;28;34403;-78
2022/06/06 11:57:27;;;;;;;1.40;1.00;;;23.50;12.80;;;;;;4994868;28;34125;-76
2022/06/06 12:00:18;;;;;;;1.13;1.00;;;23.30;11.00;;;;;;5011948;28;34163;-79
2022/06/06 12:03:24;;;;;;;1.52;1.20;;;23.20;12.50;;;;;;4982390;28;35836;-81
2022/06/06 12:06:26;;;;;;;1.17;1.08;;;22.90;9.90;;;;;;4987647;28;34155;-78
2022/06/06 12:09:22;;;;;;;1.38;0.80;;;22.90;12.30;;;;;;4992796;28;34398;-78
2022/06/06 12:12:13;;;;;;;0.70;0.70;;;23.20;8.40;;;;;;5011088;28;33852;-78
2022/06/06 12:15:04;;;;;;;1.25;0.90;;;23.30;10.10;;;;;;5024608;28;34308;-78
2022/06/06 12:18:01;;;;;;;1.55;0.90;;;23.40;10.90;;;;;;5007123;28;34383;-75
2022/06/06 12:21:02;;;;;;;0.70;0.70;;;23.50;10.30;;;;;;5008786;28;34332;-76
2022/06/06 12:23:47;;;;;;;2.33;0.70;;;23.50;9.00;;;;;;4997423;28;34368;-80
2022/06/06 12:26:48;;;;;;;0.70;0.70;;;23.50;8.60;;;;;;5006321;28;36281;-79
2022/06/06 12:29:45;;;;;;;2.85;0.73;;;23.60;6.40;;;;;;5021536;28;34322;-79
2022/06/06 12:32:35;;;;;;;3.40;0.70;;;23.60;3.00;;;;;;5020535;28;34222;-76
2022/06/06 12:35:10;;;;;;;0.80;0.80;;;23.60;4.20;;;;;;5004545;28;34296;-76
2022/06/06 12:37:47;;;;;;;0.80;0.75;;;23.50;6.10;;;;;;4998396;28;36420;-75
2022/06/06 12:40:45;;;;;;;0.93;0.93;;;23.60;8.30;;;;;;5008297;28;34093;-78
2022/06/06 12:43:39;;;;;;;0.70;0.70;;;23.70;4.10;;;;;;5011077;28;33795;-80
2022/06/06 12:46:42;;;;;;;0.93;0.80;;;23.70;4.90;;;;;;4995996;28;34337;-78
2022/06/06 12:49:24;;;;;;;1.05;0.68;;;24.00;6.20;;;;;;4995128;28;35688;-76
2022/06/06 12:52:23;;;;;;;1.25;0.80;;;24.20;6.90;;;;;;5009103;28;34155;-77
2022/06/06 12:55:30;;;;;;;1.33;0.70;;;24.20;1.30;;;;;;4988763;28;34446;-76
2022/06/06 12:58:19;;;;;;;1.33;0.80;;;24.10;7.10;;;;;;4988389;28;34550;-76
2022/06/06 13:03:53;;;;;;;1.85;0.73;;;24.20;5.90;;;;;;5007186;28;34188;-79
2022/06/06 13:06:47;;;;;;;1.45;0.55;;;24.30;2.60;;;;;;4991235;28;34245;-78
2022/06/06 13:09:40;;;;;;;0.60;0.60;;;24.20;1.00;;;;;;4994714;28;35510;-76
2022/06/06 13:12:39;;;;;;;0.75;0.63;;;24.00;1.00;;;;;;5026379;28;34505;-77
2022/06/06 13:15:20;;;;;;;1.75;0.63;;;24.20;2.60;;;;;;5008625;28;34195;-79
2022/06/06 13:18:21;;;;;;;0.73;0.60;;;24.10;4.10;;;;;;4978010;28;35043;-79
2022/06/06 13:21:18;;;;;;;1.02;0.80;;;23.80;1.00;;;;;;4978703;28;34222;-81
2022/06/06 13:24:15;;;;;;;0.93;0.82;;;23.30;1.00;;;;;;5007265;28;35564;-79
2022/06/06 13:27:14;;;;;;;1.00;0.80;;;23.30;1.10;;;;;;5008866;28;34194;-78
2022/06/06 13:29:41;;;;;;;0.65;0.65;;;23.10;2.90;;;;;;5027197;28;33997;-78
2022/06/06 13:32:23;;;;;;;1.08;0.88;;;23.30;6.90;;;;;;4992668;28;34513;-78
2022/06/06 13:35:21;;;;;;;1.05;0.70;;;23.20;4.70;;;;;;5009046;28;36394;-78
2022/06/06 13:38:10;;;;;;;0.70;0.70;;;23.10;1.80;;;;;;5028129;28;34061;-79
2022/06/06 13:40:42;;;;;;;0.80;0.70;;;22.90;3.30;;;;;;5009520;28;34395;-79
2022/06/06 13:43:39;;;;;;;2.20;0.90;;;22.80;5.80;;;;;;5021613;28;34065;-77
2022/06/06 13:46:21;;;;;;;1.45;0.90;;;22.70;5.50;;;;;;5004736;28;36451;-78
2022/06/06 13:49:10;;;;;;;0.77;0.60;;;22.70;5.10;;;;;;5009499;28;34427;-77
2022/06/06 13:52:01;;;;;;;1.15;0.98;;;22.80;5.90;;;;;;5000788;28;34319;-77
2022/06/06 13:54:34;;;;;;;1.35;1.02;;;22.70;4.70;;;;;;4989321;28;34283;-77
2022/06/06 13:57:20;;;;;;;0.80;0.70;;;22.80;5.40;;;;;;5001059;28;35617;-77
2022/06/06 14:00:05;;;;;;;0.60;0.60;;;22.80;3.70;;;;;;4985549;28;34178;-79
2022/06/06 14:02:52;;;;;;;0.70;0.70;;;23.20;5.30;;;;;;5012285;28;34681;-73
2022/06/06 14:05:51;;;;;;;1.45;0.60;;;23.50;2.40;;;;;;5008071;28;34230;-77
2022/06/06 14:08:20;;;;;;;0.60;0.60;;;23.70;3.00;;;;;;5008893;28;35993;-80
2022/06/06 14:11:00;;;;;;;1.00;0.70;;;23.90;5.10;;;;;;5008306;28;34306;-77
2022/06/06 14:13:45;;;;;;;0.60;0.60;;;23.90;3.10;;;;;;5009278;28;34154;-75
2022/06/06 14:16:31;;;;;;;0.65;0.65;;;23.60;1.00;;;;;;5008249;28;34081;-76
2022/06/06 14:19:12;;;;;;;3.65;0.52;;;23.40;2.10;;;;;;5026675;28;34160;-77
2022/06/06 14:21:47;;;;;;;1.40;0.60;;;23.20;2.90;;;;;;4987363;28;34322;-75
2022/06/06 14:24:16;;;;;;;2.50;1.00;;;23.00;5.30;;;;;;4992248;28;34286;-79
2022/06/06 14:26:56;;;;;;;0.98;0.80;;;22.90;4.20;;;;;;5008385;28;34123;-81
2022/06/06 14:29:31;;;;;;;0.98;0.60;;;22.80;3.50;;;;;;5007939;28;35762;-81
2022/06/06 14:32:01;;;;;;;0.80;0.73;;;23.00;3.40;;;;;;5010483;28;34182;-75